createdAt,value
2022-09-28T00:01:20.074Z,1.67
2022-09-28T00:03:49.599Z,1.53
2022-09-28T00:06:21.077Z,1.57
2022-09-28T00:08:51.479Z,1.50
2022-09-28T00:11:22.389Z,1.77
2022-09-28T00:13:52.466Z,1.40
2022-09-28T00:16:23.956Z,1.83
2022-09-28T00:18:52.504Z,1.73
2022-09-28T00:21:23.175Z,1.47
2022-09-28T00:24:15.722Z,1.60
2022-09-28T00:26:47.271Z,1.67
2022-09-28T00:29:22.925Z,1.47
2022-09-28T00:31:54.242Z,1.10
2022-09-28T00:34:22.715Z,1.10
2022-09-28T00:36:51.204Z,1.50
2022-09-28T00:39:21.483Z,1.83
2022-09-28T00:41:50.270Z,1.00
2022-09-28T00:44:44.595Z,1.20
2022-09-28T00:47:46.643Z,1.10
2022-09-28T00:50:26.690Z,1.30
2022-09-28T00:52:59.890Z,1.10
2022-09-28T00:55:38.975Z,1.10
2022-09-28T00:58:10.041Z,1.17
2022-09-28T01:00:40.637Z,1.00
2022-09-28T01:03:09.962Z,0.87
2022-09-28T01:05:40.733Z,1.00
2022-09-28T01:08:10.043Z,1.20
2022-09-28T01:10:43.588Z,0.90
2022-09-28T01:13:12.635Z,1.10
2022-09-28T01:15:50.650Z,1.20
2022-09-28T01:18:27.935Z,0.90
2022-09-28T01:21:02.250Z,1.07
2022-09-28T01:23:54.369Z,1.00
2022-09-28T01:26:49.056Z,1.03
2022-09-28T01:29:30.115Z,1.60
2022-09-28T01:32:13.462Z,1.20
2022-09-28T01:34:48.648Z,1.47
2022-09-28T01:37:21.255Z,1.10
2022-09-28T01:39:52.817Z,0.90
2022-09-28T01:42:28.318Z,1.07
2022-09-28T01:45:02.594Z,1.10
2022-09-28T01:47:37.320Z,1.27
2022-09-28T01:50:11.425Z,1.03
2022-09-28T01:52:45.702Z,1.17
2022-09-28T01:55:18.499Z,1.20
2022-09-28T01:57:52.794Z,1.10
2022-09-28T02:00:24.194Z,1.30
2022-09-28T02:02:58.057Z,1.50
2022-09-28T02:05:32.161Z,1.60
2022-09-28T02:08:06.756Z,1.10
2022-09-28T02:10:40.313Z,1.10
2022-09-28T02:13:13.678Z,1.33
2022-09-28T02:15:47.131Z,1.23
2022-09-28T02:18:15.881Z,1.40
2022-09-28T02:20:53.226Z,1.17
2022-09-28T02:23:25.116Z,1.00
2022-09-28T02:26:01.058Z,1.50
2022-09-28T02:28:32.227Z,1.50
2022-09-28T02:31:01.843Z,1.30
2022-09-28T02:33:36.033Z,1.50
2022-09-28T02:36:05.169Z,1.40
2022-09-28T02:38:34.202Z,1.40
2022-09-28T02:41:10.155Z,1.97
2022-09-28T02:43:51.125Z,1.70
2022-09-28T02:46:30.824Z,1.57
2022-09-28T02:49:23.627Z,1.60
2022-09-28T02:52:06.657Z,1.80
2022-09-28T02:55:07.545Z,1.80
2022-09-28T02:57:49.166Z,1.70
2022-09-28T03:00:21.173Z,1.17
2022-09-28T03:03:00.149Z,2.33
2022-09-28T03:05:36.682Z,1.60
2022-09-28T03:08:08.401Z,1.73
2022-09-28T03:10:41.482Z,1.73
2022-09-28T03:13:10.795Z,2.00
2022-09-28T03:15:45.265Z,1.90
2022-09-28T03:18:16.522Z,2.57
2022-09-28T03:20:45.043Z,1.97
2022-09-28T03:23:24.366Z,2.10
2022-09-28T03:25:54.531Z,2.17
2022-09-28T03:28:23.592Z,2.23
2022-09-28T03:30:53.546Z,2.33
2022-09-28T03:33:22.239Z,2.67
2022-09-28T03:35:51.730Z,1.80
2022-09-28T03:38:21.834Z,2.03
2022-09-28T03:40:55.673Z,2.00
2022-09-28T03:43:24.389Z,1.93
2022-09-28T03:45:58.366Z,5.97
2022-09-28T03:48:32.147Z,2.30
2022-09-28T03:51:04.275Z,2.20
2022-09-28T03:53:34.188Z,2.17
2022-09-28T03:56:05.541Z,1.80
2022-09-28T03:58:34.108Z,1.63
2022-09-28T04:01:12.952Z,1.40
2022-09-28T04:03:44.843Z,1.80
2022-09-28T04:06:13.559Z,1.83
2022-09-28T04:08:43.096Z,1.70
2022-09-28T04:11:11.611Z,1.60
2022-09-28T04:13:40.238Z,2.10
2022-09-28T04:16:12.105Z,2.70
2022-09-28T04:18:40.792Z,2.17
2022-09-28T04:21:11.990Z,2.20
2022-09-28T04:23:41.740Z,2.27
2022-09-28T04:26:17.742Z,2.93
2022-09-28T04:29:06.712Z,2.50
2022-09-28T04:31:43.060Z,2.47
2022-09-28T04:34:12.192Z,2.33
2022-09-28T04:36:40.870Z,2.47
2022-09-28T04:39:09.965Z,2.57
2022-09-28T04:41:38.818Z,2.43
2022-09-28T04:44:07.562Z,2.60
2022-09-28T04:46:36.425Z,2.97
2022-09-28T04:49:06.306Z,3.53
2022-09-28T04:51:35.072Z,2.70
2022-09-28T04:54:03.713Z,3.00
2022-09-28T04:56:32.340Z,2.87
2022-09-28T04:59:00.931Z,2.87
2022-09-28T05:01:30.057Z,2.80
2022-09-28T05:03:58.738Z,3.03
2022-09-28T05:06:30.783Z,3.10
2022-09-28T05:08:59.568Z,3.03
2022-09-28T05:11:28.222Z,2.73
2022-09-28T05:13:56.846Z,2.50
2022-09-28T05:16:26.825Z,2.47
2022-09-28T05:18:57.036Z,4.27
2022-09-28T05:21:28.013Z,6.43
2022-09-28T05:23:58.297Z,7.07
2022-09-28T05:26:26.887Z,4.17
2022-09-28T05:28:55.402Z,5.23
2022-09-28T05:31:23.975Z,4.30
2022-09-28T05:33:53.414Z,4.07
2022-09-28T05:36:22.311Z,3.00
2022-09-28T05:38:52.860Z,3.00
2022-09-28T05:41:21.400Z,3.00
2022-09-28T05:43:51.633Z,2.43
2022-09-28T05:46:21.810Z,2.93
2022-09-28T05:48:51.349Z,3.93
2022-09-28T05:51:20.227Z,4.10
2022-09-28T05:53:49.005Z,5.07
2022-09-28T05:56:19.043Z,3.87
2022-09-28T05:58:47.598Z,4.13
2022-09-28T06:01:16.147Z,4.00
2022-09-28T06:03:44.628Z,3.50
2022-09-28T06:06:13.115Z,3.90
2022-09-28T06:08:43.735Z,3.80
2022-09-28T06:11:12.849Z,3.13
2022-09-28T06:13:42.858Z,3.00
2022-09-28T06:16:17.264Z,3.33
2022-09-28T06:18:45.805Z,3.43
2022-09-28T06:21:15.071Z,3.40
2022-09-28T06:23:48.209Z,3.27
2022-09-28T06:26:18.333Z,2.40
2022-09-28T06:28:48.196Z,2.40
2022-09-28T06:31:17.231Z,2.90
2022-09-28T06:33:46.057Z,2.67
2022-09-28T06:36:14.576Z,2.77
2022-09-28T06:38:43.372Z,2.70
2022-09-28T06:41:13.033Z,3.20
2022-09-28T06:43:41.779Z,2.50
2022-09-28T06:46:13.838Z,3.17
2022-09-28T06:48:44.057Z,4.00
2022-09-28T06:51:12.753Z,4.30
2022-09-28T06:53:41.571Z,4.60
2022-09-28T06:56:11.349Z,4.57
2022-09-28T06:58:39.858Z,4.77
2022-09-28T07:01:11.112Z,3.90
2022-09-28T07:03:40.652Z,3.40
2022-09-28T07:06:12.878Z,4.07
2022-09-28T07:08:41.462Z,3.10
2022-09-28T07:11:10.072Z,2.53
2022-09-28T07:13:50.381Z,4.03
2022-09-28T07:16:55.118Z,3.50
2022-09-28T07:19:19.207Z,4.07
2022-09-28T07:21:57.426Z,4.00
2022-09-28T07:24:30.319Z,4.00
2022-09-28T07:26:59.563Z,4.80
2022-09-28T07:29:28.326Z,4.87
2022-09-28T07:31:58.292Z,4.93
2022-09-28T07:34:26.806Z,6.27
2022-09-28T07:36:58.952Z,6.27
2022-09-28T07:39:27.585Z,6.83
2022-09-28T07:41:59.700Z,6.97
2022-09-28T07:44:31.474Z,10.87
2022-09-28T07:47:02.085Z,13.20
2022-09-28T07:49:30.807Z,14.43
2022-09-28T07:51:59.437Z,15.87
2022-09-28T07:54:28.101Z,8.83
2022-09-28T07:56:56.777Z,16.27
2022-09-28T07:59:25.437Z,13.57
2022-09-28T08:01:53.981Z,7.53
2022-09-28T08:04:25.392Z,20.20
2022-09-28T08:06:53.855Z,18.90
2022-09-28T08:09:22.391Z,14.10
2022-09-28T08:11:51.067Z,11.90
2022-09-28T08:14:20.840Z,8.47
2022-09-28T08:16:52.035Z,12.00
2022-09-28T08:19:25.703Z,9.90
2022-09-28T08:21:53.397Z,7.87
2022-09-28T08:24:24.064Z,7.70
2022-09-28T08:26:53.484Z,8.13
2022-09-28T08:29:22.131Z,9.60
2022-09-28T08:31:50.670Z,8.40
2022-09-28T08:34:22.553Z,9.03
2022-09-28T08:36:52.568Z,9.30
2022-09-28T08:39:21.279Z,9.10
2022-09-28T08:41:54.727Z,10.83
2022-09-28T08:44:25.397Z,10.70
2022-09-28T08:46:57.599Z,10.70
2022-09-28T08:49:30.410Z,10.77
2022-09-28T08:52:05.456Z,10.50
2022-09-28T08:54:41.862Z,11.07
2022-09-28T08:57:15.815Z,10.97
2022-09-28T08:59:51.321Z,10.73
2022-09-28T09:02:25.519Z,10.67
2022-09-28T09:04:54.613Z,10.43
2022-09-28T09:07:39.429Z,10.93
2022-09-28T09:10:19.719Z,4.47
2022-09-28T09:12:58.655Z,4.63
2022-09-28T09:15:39.715Z,4.30
2022-09-28T09:18:22.402Z,3.80
2022-09-28T09:20:56.784Z,4.50
2022-09-28T09:23:36.986Z,5.20
2022-09-28T09:26:16.714Z,3.90
2022-09-28T09:29:07.007Z,2.50
2022-09-28T09:31:53.042Z,4.43
2022-09-28T09:34:54.975Z,4.90
2022-09-28T09:37:36.627Z,1.60
2022-09-28T09:40:26.357Z,1.20
2022-09-28T09:43:06.190Z,1.20
2022-09-28T09:45:54.221Z,0.93
2022-09-28T09:48:30.731Z,1.10
2022-09-28T09:51:03.293Z,1.20
2022-09-28T09:53:38.724Z,1.80
2022-09-28T09:56:14.173Z,1.43
2022-09-28T09:58:48.697Z,1.40
2022-09-28T10:01:21.028Z,1.33
2022-09-28T10:03:50.845Z,1.57
2022-09-28T10:06:23.185Z,1.63
2022-09-28T10:09:02.798Z,2.10
2022-09-28T10:11:37.062Z,2.30
2022-09-28T10:14:08.201Z,2.00
2022-09-28T10:16:37.866Z,1.83
2022-09-28T10:19:06.449Z,2.17
2022-09-28T10:21:37.698Z,2.53
2022-09-28T10:24:08.537Z,3.30
2022-09-28T10:26:42.766Z,2.87
2022-09-28T10:29:17.545Z,2.70
2022-09-28T10:31:48.378Z,1.83
2022-09-28T10:34:19.059Z,2.17
2022-09-28T10:36:55.122Z,1.90
2022-09-28T10:39:32.380Z,1.83
2022-09-28T10:42:04.617Z,2.60
2022-09-28T10:44:36.217Z,3.00
2022-09-28T10:47:08.045Z,14.90
2022-09-28T10:49:46.852Z,12.73
2022-09-28T10:52:37.375Z,6.43
2022-09-28T10:55:32.534Z,10.53
2022-09-28T10:58:18.434Z,4.00
2022-09-28T11:00:47.016Z,1.60
2022-09-28T11:03:21.966Z,1.40
2022-09-28T11:05:58.794Z,1.83
2022-09-28T11:08:30.636Z,1.57
2022-09-28T11:11:20.939Z,1.20
2022-09-28T11:13:53.050Z,1.00
2022-09-28T11:16:28.611Z,1.30
2022-09-28T11:18:58.764Z,1.03
2022-09-28T11:21:29.043Z,1.10
2022-09-28T11:24:05.926Z,1.10
2022-09-28T11:26:43.028Z,1.37
2022-09-28T11:29:26.535Z,1.50
2022-09-28T11:32:00.164Z,1.20
2022-09-28T11:34:57.501Z,1.30
2022-09-28T11:37:48.595Z,1.13
2022-09-28T11:40:30.530Z,1.07
2022-09-28T11:43:10.693Z,1.30
2022-09-28T11:45:56.183Z,1.23
2022-09-28T11:48:29.526Z,1.07
2022-09-28T11:51:03.776Z,1.00
2022-09-28T11:53:37.921Z,1.30
2022-09-28T11:56:16.066Z,2.50
2022-09-28T11:58:48.112Z,1.20
2022-09-28T12:01:26.266Z,1.20
2022-09-28T12:03:58.764Z,1.83
2022-09-28T12:06:32.758Z,1.60
2022-09-28T12:09:09.348Z,1.20
2022-09-28T12:11:43.951Z,1.47
2022-09-28T12:14:20.949Z,3.30
2022-09-28T12:17:07.107Z,3.00
2022-09-28T12:19:43.493Z,1.60
2022-09-28T12:22:18.371Z,1.40
2022-09-28T12:24:49.501Z,2.27
2022-09-28T12:27:25.960Z,1.67
2022-09-28T12:30:01.291Z,5.23
2022-09-28T12:32:39.360Z,2.90
2022-09-28T12:35:16.150Z,14.40
2022-09-28T12:38:02.738Z,3.20
2022-09-28T12:40:39.413Z,1.50
2022-09-28T12:43:41.806Z,1.40
2022-09-28T12:46:36.831Z,1.77
2022-09-28T12:52:34.196Z,1.70
2022-09-28T12:55:28.818Z,2.10
2022-09-28T12:58:03.924Z,1.43
2022-09-28T13:00:40.070Z,1.97
2022-09-28T13:03:45.646Z,2.90
2022-09-28T13:06:41.808Z,6.10
2022-09-28T13:09:20.518Z,3.30
2022-09-28T13:12:15.490Z,2.20
2022-09-28T13:15:02.543Z,2.53
2022-09-28T13:17:44.251Z,1.93
2022-09-28T13:20:30.205Z,1.90
2022-09-28T13:23:12.640Z,2.83
2022-09-28T13:25:44.931Z,1.83
2022-09-28T13:28:16.632Z,1.20
2022-09-28T13:30:45.943Z,1.53
2022-09-28T13:33:21.649Z,1.30
2022-09-28T13:35:50.467Z,1.20
2022-09-28T13:38:54.568Z,1.20
2022-09-28T13:41:32.213Z,1.30
2022-09-28T13:44:22.235Z,1.00
2022-09-28T13:47:06.678Z,0.87
2022-09-28T13:49:45.684Z,0.90
2022-09-28T13:52:23.791Z,1.07
2022-09-28T13:55:09.158Z,1.00
2022-09-28T13:57:47.228Z,1.20
2022-09-28T14:00:21.881Z,1.40
2022-09-28T14:02:58.893Z,1.20
2022-09-28T14:06:05.685Z,1.47
2022-09-28T14:08:38.438Z,1.00
2022-09-28T14:11:43.908Z,1.40
2022-09-28T14:14:48.100Z,2.00
2022-09-28T14:17:56.041Z,1.80
2022-09-28T14:20:28.076Z,1.30
2022-09-28T14:23:28.979Z,1.27
2022-09-28T14:26:29.264Z,0.93
2022-09-28T14:29:10.156Z,1.07
2022-09-28T14:31:44.607Z,1.10
2022-09-28T14:34:27.646Z,1.23
2022-09-28T14:37:13.853Z,1.30
2022-09-28T14:40:18.785Z,1.30
2022-09-28T14:43:24.831Z,1.10
2022-09-28T14:46:29.021Z,1.23
2022-09-28T14:49:01.649Z,1.03
2022-09-28T14:52:02.175Z,1.50
2022-09-28T14:54:46.407Z,1.67
2022-09-28T14:57:20.147Z,1.47
2022-09-28T14:59:48.994Z,1.50
2022-09-28T15:02:32.208Z,1.20
2022-09-28T15:05:15.223Z,1.20
2022-09-28T15:07:49.643Z,1.30
2022-09-28T15:10:35.120Z,1.30
2022-09-28T15:13:05.948Z,1.30
2022-09-28T15:15:38.231Z,1.37
2022-09-28T15:18:28.804Z,1.40
2022-09-28T15:21:02.337Z,1.20
2022-09-28T15:23:37.449Z,1.20
2022-09-28T15:26:08.514Z,1.20
2022-09-28T15:28:39.386Z,1.23
2022-09-28T15:31:07.892Z,1.30
2022-09-28T15:33:54.210Z,1.60
2022-09-28T15:36:27.853Z,1.23
2022-09-28T15:39:00.564Z,1.70
2022-09-28T15:41:30.024Z,1.00
2022-09-28T15:44:20.280Z,1.90
2022-09-28T15:46:56.886Z,2.60
2022-09-28T15:49:29.043Z,2.20
2022-09-28T15:52:02.993Z,1.67
2022-09-28T15:54:38.904Z,4.80
2022-09-28T15:57:07.557Z,2.10
2022-09-28T15:59:38.289Z,3.60
2022-09-28T16:02:15.968Z,5.60
2022-09-28T16:04:50.557Z,4.90
2022-09-28T16:07:39.506Z,3.60
2022-09-28T16:10:33.510Z,3.07
2022-09-28T16:13:17.911Z,2.33
2022-09-28T16:15:46.659Z,3.47
2022-09-28T16:18:23.472Z,2.80
2022-09-28T16:20:53.794Z,4.07
2022-09-28T16:23:27.742Z,2.03
2022-09-28T16:25:59.807Z,4.27
2022-09-28T16:28:51.817Z,3.70
2022-09-28T16:31:28.333Z,2.23
2022-09-28T16:33:59.353Z,4.40
2022-09-28T16:36:29.839Z,3.23
2022-09-28T16:38:59.686Z,3.53
2022-09-28T16:41:30.417Z,2.53
2022-09-28T16:44:02.966Z,2.70
2022-09-28T16:46:37.355Z,3.70
2022-09-28T16:49:07.630Z,2.63
2022-09-28T16:51:40.086Z,8.17
2022-09-28T16:54:35.032Z,8.37
2022-09-28T16:57:05.563Z,9.63
2022-09-28T16:59:34.170Z,6.33
2022-09-28T17:02:02.637Z,4.57
2022-09-28T17:04:33.055Z,3.90
2022-09-28T17:07:01.658Z,4.03
2022-09-28T17:09:32.168Z,4.70
2022-09-28T17:12:00.804Z,4.63
2022-09-28T17:14:29.309Z,4.90
2022-09-28T17:17:08.761Z,4.17
2022-09-28T17:19:39.326Z,5.77
2022-09-28T17:22:09.017Z,5.67
2022-09-28T17:24:39.038Z,6.77
2022-09-28T17:27:13.370Z,7.13
2022-09-28T17:29:41.853Z,7.97
2022-09-28T17:32:17.847Z,8.17
2022-09-28T17:34:55.877Z,8.30
2022-09-28T17:37:29.851Z,8.40
2022-09-28T17:39:59.827Z,8.60
2022-09-28T17:42:28.336Z,8.83
2022-09-28T17:44:57.068Z,15.37
2022-09-28T17:47:25.745Z,19.90
2022-09-28T17:49:54.694Z,6.27
2022-09-28T17:52:23.271Z,9.07
2022-09-28T17:54:51.767Z,11.40
2022-09-28T17:57:21.665Z,12.93
2022-09-28T17:59:51.065Z,8.83
2022-09-28T18:02:19.868Z,6.93
2022-09-28T18:04:52.062Z,6.80
2022-09-28T18:07:20.930Z,4.00
2022-09-28T18:09:53.910Z,4.70
2022-09-28T18:12:25.148Z,3.83
2022-09-28T18:14:53.914Z,4.27
2022-09-28T18:17:22.601Z,3.90
2022-09-28T18:19:51.269Z,5.70
2022-09-28T18:22:19.893Z,5.20
2022-09-28T18:24:48.369Z,4.73
2022-09-28T18:27:16.960Z,6.00
2022-09-28T18:29:46.951Z,5.23
2022-09-28T18:32:15.608Z,6.10
2022-09-28T18:34:44.340Z,5.67
2022-09-28T18:37:12.941Z,5.20
2022-09-28T18:39:41.892Z,5.60
2022-09-28T18:42:10.548Z,6.33
2022-09-28T18:44:39.182Z,5.87
2022-09-28T18:47:09.933Z,6.03
2022-09-28T18:49:38.776Z,7.33
2022-09-28T18:52:07.689Z,5.77
2022-09-28T18:54:37.503Z,7.07
2022-09-28T18:57:06.429Z,7.40
2022-09-28T18:59:35.264Z,8.43
2022-09-28T19:02:05.149Z,7.97
2022-09-28T19:04:35.890Z,7.90
2022-09-28T19:07:05.211Z,8.20
2022-09-28T19:09:34.004Z,9.37
2022-09-28T19:12:04.988Z,8.00
2022-09-28T19:14:33.587Z,8.63
2022-09-28T19:17:02.857Z,8.07
2022-09-28T19:19:32.789Z,8.57
2022-09-28T19:22:04.207Z,8.40
2022-09-28T19:24:33.340Z,7.67
2022-09-28T19:27:02.712Z,8.87
2022-09-28T19:29:31.474Z,8.77
2022-09-28T19:32:00.168Z,9.13
2022-09-28T19:34:30.233Z,7.83
2022-09-28T19:37:01.301Z,8.73
2022-09-28T19:39:32.199Z,8.53
2022-09-28T19:42:01.343Z,8.70
2022-09-28T19:44:31.815Z,9.30
2022-09-28T19:47:07.403Z,9.60
2022-09-28T19:49:40.737Z,9.60
2022-09-28T19:52:17.130Z,11.77
2022-09-28T19:54:56.766Z,13.93
2022-09-28T19:57:27.971Z,11.43
2022-09-28T20:00:04.439Z,12.90
2022-09-28T20:02:34.013Z,12.20
2022-09-28T20:05:02.735Z,12.97
2022-09-28T20:07:33.424Z,12.87
2022-09-28T20:10:03.365Z,13.30
2022-09-28T20:12:32.181Z,13.17
2022-09-28T20:15:02.029Z,12.20
2022-09-28T20:17:31.601Z,11.90
2022-09-28T20:20:00.163Z,12.43
2022-09-28T20:22:29.858Z,12.90
2022-09-28T20:25:01.368Z,12.50
2022-09-28T20:27:31.248Z,11.30
2022-09-28T20:30:01.094Z,10.47
2022-09-28T20:32:32.952Z,10.30
2022-09-28T20:35:02.046Z,11.13
2022-09-28T20:37:31.075Z,10.77
2022-09-28T20:40:02.909Z,11.13
2022-09-28T20:42:33.147Z,11.17
2022-09-28T20:45:01.700Z,11.90
2022-09-28T20:47:30.191Z,11.47
2022-09-28T20:49:59.368Z,10.97
2022-09-28T20:52:28.258Z,10.20
2022-09-28T20:54:57.282Z,12.10
2022-09-28T20:57:26.278Z,15.97
2022-09-28T20:59:56.390Z,13.40
2022-09-28T21:02:25.760Z,10.67
2022-09-28T21:04:54.748Z,22.20
2022-09-28T21:07:23.320Z,13.40
2022-09-28T21:09:52.226Z,13.60
2022-09-28T21:12:21.056Z,13.83
2022-09-28T21:14:50.128Z,12.90
2022-09-28T21:17:20.922Z,12.67
2022-09-28T21:19:49.683Z,14.20
2022-09-28T21:22:18.634Z,12.83
2022-09-28T21:24:47.348Z,12.30
2022-09-28T21:27:16.186Z,13.17
2022-09-28T21:29:44.736Z,13.17
2022-09-28T21:32:13.792Z,12.90
2022-09-28T21:34:44.942Z,12.03
2022-09-28T21:37:13.679Z,11.87
2022-09-28T21:39:42.983Z,10.67
2022-09-28T21:42:11.603Z,11.80
2022-09-28T21:44:40.134Z,11.20
2022-09-28T21:47:08.762Z,10.40
2022-09-28T21:49:37.304Z,10.60
2022-09-28T21:52:07.406Z,12.10
2022-09-28T21:54:37.311Z,10.90
2022-09-28T21:57:05.842Z,9.80
2022-09-28T21:59:34.323Z,13.27
2022-09-28T22:02:05.699Z,15.67
2022-09-28T22:04:34.212Z,10.90
2022-09-28T22:07:02.691Z,10.60
2022-09-28T22:09:32.670Z,11.43
2022-09-28T22:12:01.300Z,10.90
2022-09-28T22:14:29.773Z,11.00
2022-09-28T22:16:58.332Z,10.60
2022-09-28T22:19:26.899Z,9.40
2022-09-28T22:21:55.510Z,10.13
2022-09-28T22:24:24.207Z,9.20
2022-09-28T22:26:54.109Z,8.77
2022-09-28T22:29:24.029Z,8.67
2022-09-28T22:31:52.543Z,9.10
2022-09-28T22:34:21.143Z,8.87
2022-09-28T22:36:49.715Z,10.10
2022-09-28T22:39:18.325Z,8.80
2022-09-28T22:41:46.854Z,8.83
2022-09-28T22:44:16.826Z,8.73
2022-09-28T22:46:45.710Z,8.87
2022-09-28T22:49:14.657Z,8.97
2022-09-28T22:51:43.368Z,8.10
2022-09-28T22:54:15.670Z,8.40
2022-09-28T22:56:45.099Z,9.73
2022-09-28T22:59:15.349Z,47.63
2022-09-28T23:01:43.946Z,30.70
2022-09-28T23:04:12.731Z,14.53
2022-09-28T23:06:41.545Z,9.40
2022-09-28T23:09:10.231Z,11.53
2022-09-28T23:11:39.207Z,9.50
2022-09-28T23:14:08.362Z,14.60
2022-09-28T23:16:38.282Z,17.40
2022-09-28T23:19:07.094Z,25.87
2022-09-28T23:21:37.122Z,21.03
2022-09-28T23:24:05.743Z,7.50
2022-09-28T23:26:37.029Z,9.40
2022-09-28T23:29:05.783Z,6.67
2022-09-28T23:31:35.754Z,8.23
2022-09-28T23:34:09.023Z,7.53
2022-09-28T23:36:37.642Z,7.63
2022-09-28T23:39:06.122Z,6.73
2022-09-28T23:41:34.623Z,7.27
2022-09-28T23:44:03.628Z,6.37
2022-09-28T23:46:32.404Z,10.93
2022-09-28T23:49:01.063Z,12.83
2022-09-28T23:51:31.069Z,13.47
2022-09-28T23:53:59.707Z,7.70
2022-09-28T23:56:28.142Z,7.90
2022-09-28T23:58:56.622Z,5.80
